Time;durP1;ratioP1;P1;durP2;ratioP2;P2;SDS_P1;SDS_P2;PMS_P1;PMS_P2;Temp;Humidity;BMP_temperature;BMP_pressure;BME280_temperature;BME280_humidity;BME280_pressure;Samples;Min_cycle;Max_cycle;Signal;HPM_P1;HPM_P2
2022/03/02 00:01:32;;;;;;;0.40;0.30;;;0.80;76.20;;;;;;5036289;28;20451;-77
2022/03/02 00:03:59;;;;;;;0.30;0.20;;;0.80;76.60;;;;;;5036223;28;20470;-77
2022/03/02 00:06:26;;;;;;;0.40;0.40;;;0.80;77.30;;;;;;5035413;28;20418;-77
2022/03/02 00:08:53;;;;;;;0.60;0.60;;;0.80;78.70;;;;;;5034870;28;20471;-77
2022/03/02 00:11:21;;;;;;;0.30;0.30;;;0.80;78.00;;;;;;5035183;28;20449;-77
2022/03/02 00:13:48;;;;;;;0.30;0.30;;;0.70;78.60;;;;;;5035091;28;20446;-77
2022/03/02 00:16:16;;;;;;;0.77;0.77;;;0.70;79.20;;;;;;5035052;28;20438;-77
2022/03/02 00:18:44;;;;;;;0.30;0.30;;;0.60;79.80;;;;;;5034886;28;20458;-77
2022/03/02 00:21:11;;;;;;;0.60;0.60;;;0.50;80.90;;;;;;5035095;28;20497;-77
2022/03/02 00:23:37;;;;;;;0.30;0.30;;;0.50;80.10;;;;;;5035169;28;20454;-77
2022/03/02 00:26:04;;;;;;;0.30;0.30;;;0.50;80.00;;;;;;5035073;28;20474;-77
2022/03/02 00:28:32;;;;;;;0.30;0.23;;;0.60;80.00;;;;;;5035047;28;20498;-77
2022/03/02 00:30:59;;;;;;;0.57;0.57;;;0.70;81.20;;;;;;5035149;28;20942;-77
2022/03/02 00:33:26;;;;;;;0.40;0.40;;;0.70;80.50;;;;;;5035116;28;20937;-77
2022/03/02 00:35:53;;;;;;;0.50;0.50;;;0.70;80.40;;;;;;5035314;28;20450;-77
2022/03/02 00:38:20;;;;;;;0.30;0.30;;;0.80;81.40;;;;;;5035090;28;20463;-77
2022/03/02 00:40:47;;;;;;;0.50;0.50;;;0.80;82.20;;;;;;5034652;28;20447;-77
2022/03/02 00:43:13;;;;;;;0.30;0.30;;;0.80;82.40;;;;;;5035118;28;20455;-77
2022/03/02 00:45:42;;;;;;;0.93;0.60;;;0.80;82.50;;;;;;5035088;28;20482;-77
2022/03/02 00:48:08;;;;;;;0.30;0.30;;;0.80;82.20;;;;;;5035113;28;20463;-77
2022/03/02 00:50:36;;;;;;;0.30;0.30;;;0.80;81.60;;;;;;5035079;28;20446;-77
2022/03/02 00:53:05;;;;;;;0.40;0.40;;;0.90;83.40;;;;;;5035089;28;20457;-77
2022/03/02 00:55:33;;;;;;;0.30;0.30;;;0.90;83.10;;;;;;5034421;28;20501;-76
2022/03/02 00:57:59;;;;;;;0.37;0.33;;;0.90;83.80;;;;;;5034811;28;20467;-77
2022/03/02 01:00:26;;;;;;;0.40;0.40;;;0.90;82.40;;;;;;5035510;28;20443;-77
2022/03/02 01:02:54;;;;;;;1.13;1.13;;;0.90;82.10;;;;;;5034738;28;20454;-77
2022/03/02 01:05:21;;;;;;;0.40;0.40;;;0.90;81.70;;;;;;5034727;28;20489;-77
2022/03/02 01:07:48;;;;;;;0.30;0.30;;;0.90;82.10;;;;;;5035257;28;20474;-77
2022/03/02 01:10:15;;;;;;;0.37;0.30;;;0.90;81.60;;;;;;5038894;28;20479;-77
2022/03/02 01:12:42;;;;;;;0.30;0.20;;;0.90;82.70;;;;;;5037891;28;20541;-77
2022/03/02 01:15:10;;;;;;;0.30;0.30;;;0.90;83.00;;;;;;5036608;28;20977;-77
2022/03/02 01:17:37;;;;;;;0.30;0.30;;;0.90;85.00;;;;;;5037119;28;20465;-77
2022/03/02 01:20:08;;;;;;;0.97;0.77;;;0.80;83.80;;;;;;5036422;28;20450;-77
2022/03/02 01:22:35;;;;;;;0.30;0.30;;;0.70;83.90;;;;;;5035007;28;20438;-77
2022/03/02 01:25:02;;;;;;;0.40;0.33;;;0.70;83.50;;;;;;5033426;28;20490;-77
2022/03/02 01:27:30;;;;;;;1.80;1.17;;;0.60;83.00;;;;;;5033864;28;20450;-77
2022/03/02 01:29:56;;;;;;;0.30;0.20;;;0.50;81.60;;;;;;5033964;28;20457;-77
2022/03/02 01:32:24;;;;;;;0.40;0.40;;;0.50;81.80;;;;;;5033577;28;20950;-77
2022/03/02 01:34:50;;;;;;;0.50;0.50;;;0.50;81.80;;;;;;5034009;28;20447;-77
2022/03/02 01:37:18;;;;;;;0.37;0.37;;;0.50;80.90;;;;;;5034514;28;20794;-77
2022/03/02 01:39:45;;;;;;;0.60;0.60;;;0.50;80.90;;;;;;5034610;28;20973;-77
2022/03/02 01:42:12;;;;;;;0.93;0.70;;;0.50;80.70;;;;;;5034741;28;20450;-77
2022/03/02 01:44:39;;;;;;;0.50;0.50;;;0.40;79.90;;;;;;5034020;28;20459;-77
2022/03/02 01:47:07;;;;;;;0.70;0.70;;;0.40;81.40;;;;;;5033538;28;20454;-77
2022/03/02 01:49:34;;;;;;;1.63;1.30;;;0.40;81.90;;;;;;5033235;28;20470;-77
2022/03/02 01:52:02;;;;;;;0.30;0.30;;;0.30;81.00;;;;;;5033494;28;20450;-77
2022/03/02 01:54:30;;;;;;;0.57;0.57;;;0.30;82.30;;;;;;5033471;28;20458;-77
2022/03/02 01:56:56;;;;;;;0.30;0.30;;;0.30;83.60;;;;;;5033466;28;20443;-77
2022/03/02 01:59:25;;;;;;;0.40;0.30;;;0.20;83.70;;;;;;5033343;28;20473;-77
2022/03/02 02:01:52;;;;;;;0.30;0.30;;;0.20;84.80;;;;;;5033143;28;20490;-77
2022/03/02 02:04:19;;;;;;;0.30;0.30;;;0.20;86.00;;;;;;5034165;28;20450;-77
2022/03/02 02:06:45;;;;;;;0.30;0.20;;;0.20;84.90;;;;;;5033295;28;20482;-77
2022/03/02 02:09:12;;;;;;;0.70;0.70;;;0.20;85.20;;;;;;5036895;28;20986;-77
2022/03/02 02:11:40;;;;;;;0.30;0.30;;;0.20;85.50;;;;;;5037336;28;20446;-77
2022/03/02 02:14:07;;;;;;;0.30;0.30;;;0.20;85.50;;;;;;5037222;28;20469;-77
2022/03/02 02:16:34;;;;;;;0.60;0.60;;;0.20;86.30;;;;;;5037352;28;20461;-77
2022/03/02 02:19:01;;;;;;;0.53;0.53;;;0.20;86.70;;;;;;5037182;28;20495;-77
2022/03/02 02:21:30;;;;;;;0.30;0.30;;;0.20;85.70;;;;;;5037235;28;20455;-77
2022/03/02 02:23:57;;;;;;;0.40;0.40;;;0.10;87.20;;;;;;5037030;28;20451;-77
2022/03/02 02:26:25;;;;;;;0.30;0.30;;;0.10;87.30;;;;;;5036868;28;21024;-77
2022/03/02 02:28:52;;;;;;;0.30;0.20;;;0.10;87.90;;;;;;5036850;28;20981;-77
2022/03/02 02:31:19;;;;;;;0.37;0.37;;;0.10;88.10;;;;;;5037074;28;20450;-76
2022/03/02 02:33:46;;;;;;;0.40;0.40;;;0.00;88.70;;;;;;5036949;28;20461;-77
2022/03/02 02:36:13;;;;;;;0.30;0.30;;;0.00;89.60;;;;;;5036963;28;20446;-77
2022/03/02 02:38:41;;;;;;;0.40;0.40;;;0.00;89.80;;;;;;5036850;28;20470;-77
2022/03/02 02:41:08;;;;;;;0.30;0.30;;;-0.10;90.10;;;;;;5036597;28;20946;-77
2022/03/02 02:43:37;;;;;;;0.30;0.30;;;-0.10;90.40;;;;;;5036960;28;20434;-77
2022/03/02 02:46:04;;;;;;;0.30;0.30;;;-0.10;90.30;;;;;;5036703;28;20482;-77
2022/03/02 02:48:31;;;;;;;0.30;0.30;;;-0.10;90.60;;;;;;5036225;28;21095;-77
2022/03/02 02:50:58;;;;;;;0.87;0.87;;;-0.20;90.90;;;;;;5036759;28;20459;-77
2022/03/02 02:53:25;;;;;;;0.50;0.50;;;-0.20;90.90;;;;;;5036708;28;20458;-77
2022/03/02 02:55:54;;;;;;;0.30;0.30;;;-0.20;90.80;;;;;;5036632;28;20821;-77
2022/03/02 02:58:21;;;;;;;0.57;0.57;;;-0.20;90.40;;;;;;5037229;28;20480;-77
2022/03/02 03:00:49;;;;;;;0.30;0.30;;;-0.20;90.10;;;;;;5036751;28;20937;-77
2022/03/02 03:03:17;;;;;;;0.87;0.87;;;-0.20;90.30;;;;;;5037021;28;20450;-77
2022/03/02 03:05:45;;;;;;;0.30;0.30;;;-0.10;90.70;;;;;;5037169;28;20478;-77
2022/03/02 03:08:13;;;;;;;0.50;0.50;;;-0.10;90.90;;;;;;5036946;28;21044;-77
2022/03/02 03:10:42;;;;;;;0.97;0.97;;;-0.10;91.00;;;;;;5036723;28;20464;-77
2022/03/02 03:13:10;;;;;;;0.40;0.40;;;-0.20;91.20;;;;;;5037176;28;20454;-77
2022/03/02 03:15:37;;;;;;;0.30;0.30;;;-0.20;91.50;;;;;;5036850;28;20421;-77
2022/03/02 03:18:05;;;;;;;0.30;0.30;;;-0.20;91.30;;;;;;5036566;28;20471;-77
2022/03/02 03:20:33;;;;;;;0.50;0.50;;;-0.30;91.50;;;;;;5035830;28;20520;-77
2022/03/02 03:23:01;;;;;;;0.50;0.50;;;-0.30;91.30;;;;;;5036448;28;20946;-77
2022/03/02 03:25:29;;;;;;;0.40;0.40;;;-0.30;91.30;;;;;;5036170;28;21002;-77
2022/03/02 03:27:56;;;;;;;0.73;0.73;;;-0.40;91.60;;;;;;5036668;28;20467;-77
2022/03/02 03:30:26;;;;;;;1.53;0.93;;;-0.40;91.80;;;;;;5036690;28;20450;-77
2022/03/02 03:32:53;;;;;;;0.30;0.30;;;-0.40;92.10;;;;;;5036210;28;20442;-77
2022/03/02 03:35:23;;;;;;;0.40;0.40;;;-0.40;92.70;;;;;;5035990;28;20827;-77
2022/03/02 03:37:51;;;;;;;0.30;0.30;;;-0.40;92.80;;;;;;5036650;28;20462;-77
2022/03/02 03:40:19;;;;;;;0.30;0.30;;;-0.40;92.90;;;;;;5036537;28;20455;-77
2022/03/02 03:42:46;;;;;;;0.60;0.60;;;-0.40;92.70;;;;;;5037136;28;20890;-77
2022/03/02 03:45:14;;;;;;;0.33;0.33;;;-0.50;92.10;;;;;;5036482;28;20447;-77
2022/03/02 03:47:42;;;;;;;0.30;0.30;;;-0.50;93.00;;;;;;5035909;28;20477;-77
2022/03/02 03:50:10;;;;;;;0.40;0.40;;;-0.50;93.30;;;;;;5036153;28;20462;-77
2022/03/02 03:52:37;;;;;;;0.30;0.30;;;-0.50;93.30;;;;;;5037121;28;20504;-77
2022/03/02 03:55:06;;;;;;;0.30;0.30;;;-0.50;92.90;;;;;;5036317;28;20443;-76
2022/03/02 03:57:33;;;;;;;0.83;0.83;;;-0.60;92.60;;;;;;5036626;28;20450;-77
2022/03/02 04:00:00;;;;;;;0.73;0.70;;;-0.70;93.40;;;;;;5036854;28;20425;-77
2022/03/02 04:02:27;;;;;;;0.40;0.40;;;-0.70;93.80;;;;;;5036716;28;20452;-77
2022/03/02 04:04:55;;;;;;;0.60;0.60;;;-0.70;94.20;;;;;;5035811;28;20458;-77
2022/03/02 04:07:22;;;;;;;0.40;0.40;;;-0.80;94.60;;;;;;5034882;28;20487;-77
2022/03/02 04:09:49;;;;;;;0.30;0.30;;;-0.80;95.20;;;;;;5034739;28;20577;-77
2022/03/02 04:12:17;;;;;;;0.33;0.33;;;-0.80;95.80;;;;;;5034656;28;20450;-77
2022/03/02 04:14:44;;;;;;;0.50;0.50;;;-0.80;95.60;;;;;;5034598;28;20443;-77
2022/03/02 04:17:12;;;;;;;0.70;0.70;;;-0.80;94.90;;;;;;5034943;28;20443;-77
2022/03/02 04:19:39;;;;;;;0.30;0.30;;;-0.80;94.60;;;;;;5034744;28;20463;-77
2022/03/02 04:22:07;;;;;;;0.30;0.30;;;-0.80;94.60;;;;;;5035584;28;20425;-77
2022/03/02 04:24:34;;;;;;;0.30;0.30;;;-0.80;95.40;;;;;;5034798;28;20454;-77
2022/03/02 04:27:01;;;;;;;0.30;0.30;;;-0.70;95.30;;;;;;5034413;28;20487;-77
2022/03/02 04:29:27;;;;;;;0.50;0.50;;;-0.80;95.50;;;;;;5034562;28;20475;-77
2022/03/02 04:31:54;;;;;;;0.50;0.50;;;-0.70;96.00;;;;;;5034064;28;20446;-76
2022/03/02 04:34:21;;;;;;;0.33;0.30;;;-0.80;95.90;;;;;;5034582;28;20443;-77
2022/03/02 04:36:48;;;;;;;0.30;0.30;;;-0.80;96.00;;;;;;5034236;28;20439;-77
2022/03/02 04:39:16;;;;;;;0.40;0.40;;;-0.80;96.60;;;;;;5034356;28;20468;-77
2022/03/02 04:41:43;;;;;;;0.40;0.40;;;-0.80;97.10;;;;;;5034487;28;20453;-77
2022/03/02 04:44:10;;;;;;;1.57;1.57;;;-0.80;97.30;;;;;;5034081;28;20934;-77
2022/03/02 04:46:36;;;;;;;0.70;0.70;;;-0.80;97.10;;;;;;5034336;28;20460;-77
2022/03/02 04:49:10;;;;;;;1.50;1.40;;;-0.80;98.20;;;;;;5034189;28;20472;-77
2022/03/02 04:51:38;;;;;;;0.50;0.50;;;-0.80;97.70;;;;;;5033914;28;20900;-77
2022/03/02 04:54:05;;;;;;;0.60;0.60;;;-0.80;97.40;;;;;;5034160;28;20421;-77
2022/03/02 04:56:33;;;;;;;0.97;0.97;;;-0.90;96.90;;;;;;5033833;28;20939;-77
2022/03/02 04:59:03;;;;;;;0.30;0.30;;;-0.90;96.20;;;;;;5034096;28;20466;-77
2022/03/02 05:01:30;;;;;;;0.37;0.37;;;-0.90;97.10;;;;;;5034003;28;20447;-77
2022/03/02 05:03:57;;;;;;;0.70;0.70;;;-0.90;97.30;;;;;;5034027;28;20458;-78
2022/03/02 05:06:23;;;;;;;0.40;0.40;;;-0.90;97.20;;;;;;5034789;28;20449;-78
2022/03/02 05:08:50;;;;;;;0.60;0.40;;;-0.90;96.80;;;;;;5033508;28;20470;-78
2022/03/02 05:11:17;;;;;;;0.40;0.40;;;-0.90;97.70;;;;;;5034442;28;20417;-78
2022/03/02 05:13:45;;;;;;;0.30;0.30;;;-0.90;97.80;;;;;;5033854;28;20450;-78
2022/03/02 05:16:12;;;;;;;0.30;0.30;;;-0.90;97.60;;;;;;5033791;28;20450;-78
2022/03/02 05:18:41;;;;;;;0.40;0.40;;;-0.90;97.40;;;;;;5033669;28;20473;-78
2022/03/02 05:21:08;;;;;;;0.40;0.40;;;-0.90;96.80;;;;;;5033756;28;20446;-78
2022/03/02 05:23:35;;;;;;;0.30;0.30;;;-0.80;96.60;;;;;;5033742;28;20450;-78
2022/03/02 05:26:02;;;;;;;0.40;0.40;;;-0.80;96.90;;;;;;5034008;28;20841;-78
2022/03/02 05:28:28;;;;;;;0.30;0.30;;;-0.80;97.00;;;;;;5034392;28;20466;-78
2022/03/02 05:30:56;;;;;;;0.30;0.30;;;-0.80;97.50;;;;;;5033676;28;20450;-78
2022/03/02 05:33:23;;;;;;;0.30;0.30;;;-0.70;97.60;;;;;;5033315;28;20950;-78
2022/03/02 05:35:50;;;;;;;0.40;0.40;;;-0.70;97.70;;;;;;5033313;28;20435;-78
2022/03/02 05:38:17;;;;;;;0.30;0.30;;;-0.70;98.00;;;;;;5033447;28;20466;-78
2022/03/02 05:40:43;;;;;;;0.40;0.40;;;-0.70;98.00;;;;;;5033180;28;20443;-78
2022/03/02 05:43:10;;;;;;;0.30;0.30;;;-0.70;98.40;;;;;;5032526;28;20421;-78
2022/03/02 05:45:37;;;;;;;0.30;0.30;;;-0.70;97.70;;;;;;5033185;28;20449;-78
2022/03/02 05:48:06;;;;;;;0.40;0.40;;;-0.70;97.10;;;;;;5033333;28;20486;-79
2022/03/02 05:50:33;;;;;;;0.30;0.30;;;-0.60;97.40;;;;;;5033350;28;20446;-78
2022/03/02 05:53:00;;;;;;;0.30;0.30;;;-0.60;97.60;;;;;;5033210;28;20435;-78
2022/03/02 05:55:26;;;;;;;0.30;0.30;;;-0.50;97.60;;;;;;5033221;28;20443;-78
2022/03/02 05:57:53;;;;;;;2.00;0.63;;;-0.50;98.10;;;;;;5033456;28;20847;-78
2022/03/02 06:00:20;;;;;;;0.30;0.30;;;-0.40;98.10;;;;;;5033779;28;20454;-78
2022/03/02 06:02:47;;;;;;;0.30;0.30;;;-0.40;97.90;;;;;;5033520;28;20450;-78
2022/03/02 06:05:15;;;;;;;0.30;0.30;;;-0.30;98.20;;;;;;5033776;28;20450;-78
2022/03/02 06:07:42;;;;;;;0.30;0.30;;;-0.30;97.90;;;;;;5033398;28;20500;-78
2022/03/02 06:10:11;;;;;;;0.47;0.47;;;-0.30;98.10;;;;;;5032937;28;20482;-78
2022/03/02 06:12:39;;;;;;;1.40;0.63;;;-0.20;97.60;;;;;;5033403;28;20439;-79
2022/03/02 06:15:07;;;;;;;0.30;0.30;;;-0.20;97.80;;;;;;5033031;28;20933;-79
2022/03/02 06:17:34;;;;;;;0.53;0.53;;;-0.10;97.40;;;;;;5037543;28;20458;-79
2022/03/02 06:20:01;;;;;;;0.30;0.30;;;-0.10;97.60;;;;;;5039590;28;20934;-79
2022/03/02 06:22:30;;;;;;;1.03;1.03;;;-0.10;98.00;;;;;;5040456;28;20454;-79
2022/03/02 06:24:58;;;;;;;0.40;0.40;;;-0.10;98.20;;;;;;5041066;28;20451;-79
2022/03/02 06:27:25;;;;;;;0.30;0.30;;;0.10;97.40;;;;;;5040317;28;20482;-78
2022/03/02 06:29:51;;;;;;;0.30;0.30;;;0.10;97.40;;;;;;5040492;28;20434;-79
2022/03/02 06:32:18;;;;;;;0.50;0.50;;;0.10;97.20;;;;;;5039928;28;20442;-78
2022/03/02 06:34:45;;;;;;;0.60;0.60;;;0.20;97.80;;;;;;5039509;28;20453;-78
2022/03/02 06:37:12;;;;;;;0.40;0.40;;;0.20;98.20;;;;;;5039449;28;20443;-79
2022/03/02 06:39:40;;;;;;;0.40;0.40;;;0.20;98.20;;;;;;5039446;28;20474;-78
2022/03/02 06:42:17;;;;;;;0.30;0.20;;;0.30;97.90;;;;;;5038453;28;20447;-78
2022/03/02 06:44:52;;;;;;;1.33;1.33;;;0.40;98.30;;;;;;5038213;28;20426;-79
2022/03/02 06:47:23;;;;;;;0.90;0.90;;;0.40;96.80;;;;;;5037910;28;20469;-79
2022/03/02 06:50:00;;;;;;;0.43;0.43;;;0.40;97.00;;;;;;5036055;28;20438;-79
2022/03/02 06:52:33;;;;;;;0.30;0.30;;;0.50;96.90;;;;;;5033194;28;20434;-79
2022/03/02 06:55:04;;;;;;;0.30;0.30;;;0.60;96.30;;;;;;5036338;28;20465;-78
2022/03/02 06:57:31;;;;;;;1.80;1.40;;;0.60;96.30;;;;;;5036539;28;20431;-79
2022/03/02 07:00:02;;;;;;;0.60;0.60;;;0.60;96.30;;;;;;5036531;28;20473;-79
2022/03/02 07:02:39;;;;;;;0.30;0.30;;;0.70;96.10;;;;;;5037018;28;20451;-79
2022/03/02 07:05:08;;;;;;;0.30;0.30;;;0.80;96.00;;;;;;5036732;28;20438;-79
2022/03/02 07:07:35;;;;;;;0.30;0.30;;;0.80;95.70;;;;;;5036340;28;20493;-79
2022/03/02 07:10:05;;;;;;;0.33;0.33;;;0.80;95.70;;;;;;5036036;28;21013;-78
2022/03/02 07:12:31;;;;;;;0.30;0.27;;;0.90;95.60;;;;;;5036681;28;20454;-79
2022/03/02 07:14:58;;;;;;;0.73;0.73;;;0.90;95.50;;;;;;5036331;28;20469;-78
2022/03/02 07:17:26;;;;;;;0.33;0.33;;;1.00;95.60;;;;;;5036526;28;20461;-79
2022/03/02 07:19:53;;;;;;;0.40;0.40;;;1.00;95.90;;;;;;5036125;28;20454;-79
2022/03/02 07:22:22;;;;;;;0.30;0.30;;;1.00;96.00;;;;;;5036136;28;20446;-79
2022/03/02 07:24:53;;;;;;;0.50;0.50;;;1.00;96.80;;;;;;5035703;28;20938;-78
2022/03/02 07:27:23;;;;;;;0.47;0.47;;;1.00;97.20;;;;;;5035568;28;20999;-79
2022/03/02 07:29:53;;;;;;;0.30;0.30;;;1.00;97.10;;;;;;5035604;28;20823;-79
2022/03/02 07:32:23;;;;;;;0.70;0.70;;;1.10;96.70;;;;;;5036073;28;20509;-78
2022/03/02 07:34:55;;;;;;;0.40;0.40;;;1.20;96.80;;;;;;5035801;28;20930;-79
2022/03/02 07:37:22;;;;;;;0.53;0.53;;;1.20;96.70;;;;;;5036005;28;20818;-79
2022/03/02 07:39:50;;;;;;;0.50;0.50;;;1.30;96.60;;;;;;5035557;28;20450;-78
2022/03/02 07:42:19;;;;;;;0.50;0.40;;;1.40;96.60;;;;;;5035939;28;20805;-79
2022/03/02 07:44:48;;;;;;;0.93;0.93;;;1.50;96.90;;;;;;5036489;28;20451;-78
2022/03/02 07:47:15;;;;;;;0.67;0.67;;;1.60;96.90;;;;;;5035693;28;20470;-79
2022/03/02 07:49:42;;;;;;;0.30;0.30;;;1.80;96.70;;;;;;5035502;28;20455;-79
2022/03/02 07:52:10;;;;;;;1.37;1.37;;;2.00;96.10;;;;;;5035270;28;20910;-79
2022/03/02 07:54:39;;;;;;;0.73;0.73;;;2.20;95.00;;;;;;5035574;28;20441;-78
2022/03/02 07:57:07;;;;;;;0.40;0.40;;;2.50;94.20;;;;;;5035307;28;20907;-79
2022/03/02 07:59:37;;;;;;;0.40;0.40;;;2.60;92.60;;;;;;5035570;28;20474;-79
2022/03/02 08:02:07;;;;;;;0.30;0.30;;;2.80;91.80;;;;;;5035482;28;20837;-79
2022/03/02 08:04:35;;;;;;;0.67;0.67;;;2.90;91.70;;;;;;5035178;28;20438;-79
2022/03/02 08:07:03;;;;;;;0.43;0.43;;;3.10;91.10;;;;;;5035208;28;20466;-79
2022/03/02 08:09:31;;;;;;;0.30;0.30;;;3.20;91.90;;;;;;5035084;28;20494;-79
2022/03/02 08:11:59;;;;;;;0.60;0.47;;;3.50;92.40;;;;;;5035173;28;20493;-79
2022/03/02 08:14:26;;;;;;;1.17;0.73;;;3.70;90.30;;;;;;5034953;28;20992;-79
2022/03/02 08:16:54;;;;;;;1.20;1.10;;;4.00;90.00;;;;;;5034809;28;20973;-78
2022/03/02 08:19:23;;;;;;;0.57;0.57;;;4.40;89.10;;;;;;5035020;28;20482;-79
2022/03/02 08:21:56;;;;;;;1.03;0.93;;;4.60;86.40;;;;;;5035102;28;20470;-78
2022/03/02 08:24:25;;;;;;;1.07;1.07;;;4.60;84.30;;;;;;5034920;28;20526;-78
2022/03/02 08:26:55;;;;;;;0.40;0.30;;;4.60;82.50;;;;;;5035017;28;20447;-78
2022/03/02 08:29:26;;;;;;;0.80;0.80;;;4.70;81.90;;;;;;5034851;28;20470;-78
2022/03/02 08:31:57;;;;;;;0.30;0.30;;;4.80;81.90;;;;;;5034789;28;20968;-78
2022/03/02 08:34:26;;;;;;;1.67;0.87;;;4.90;81.50;;;;;;5034908;28;20446;-78
2022/03/02 08:36:54;;;;;;;0.33;0.33;;;4.90;84.70;;;;;;5034631;28;20443;-78
2022/03/02 08:39:21;;;;;;;0.90;0.90;;;4.80;84.10;;;;;;5034091;28;20477;-78
2022/03/02 08:41:49;;;;;;;0.60;0.30;;;4.80;84.90;;;;;;5034402;28;20447;-78
2022/03/02 08:44:16;;;;;;;0.63;0.40;;;4.80;84.30;;;;;;5034355;28;20459;-78
2022/03/02 08:46:45;;;;;;;0.50;0.50;;;4.80;82.70;;;;;;5034062;28;20464;-78
2022/03/02 08:49:12;;;;;;;0.77;0.50;;;4.90;82.60;;;;;;5034229;28;20521;-78
2022/03/02 08:51:41;;;;;;;1.40;1.40;;;4.90;82.00;;;;;;5034232;28;20831;-77
2022/03/02 08:54:11;;;;;;;0.50;0.50;;;4.90;80.40;;;;;;5034265;28;20439;-77
2022/03/02 08:56:40;;;;;;;0.30;0.30;;;4.90;79.10;;;;;;5033932;28;20427;-78
2022/03/02 08:59:08;;;;;;;0.97;0.80;;;5.00;79.70;;;;;;5034061;28;20469;-77
2022/03/02 09:01:40;;;;;;;0.67;0.50;;;5.20;79.90;;;;;;5034031;28;20442;-77
2022/03/02 09:04:07;;;;;;;0.53;0.50;;;5.40;80.40;;;;;;5034146;28;20435;-77
2022/03/02 09:06:36;;;;;;;0.60;0.57;;;5.60;81.20;;;;;;5033734;28;20965;-77
2022/03/02 09:09:07;;;;;;;0.67;0.67;;;5.60;80.90;;;;;;5033299;28;21036;-77
2022/03/02 09:11:34;;;;;;;0.30;0.30;;;5.70;80.40;;;;;;5033964;28;20839;-77
2022/03/02 09:14:01;;;;;;;1.67;0.67;;;5.90;81.90;;;;;;5033594;28;20435;-77
2022/03/02 09:16:28;;;;;;;0.30;0.20;;;6.10;79.40;;;;;;5033191;28;20465;-78
2022/03/02 09:18:55;;;;;;;0.50;0.43;;;6.30;79.40;;;;;;5033459;28;20462;-77
2022/03/02 09:21:23;;;;;;;0.30;0.27;;;6.60;80.00;;;;;;5033772;28;20863;-79
2022/03/02 09:23:50;;;;;;;0.57;0.57;;;6.80;78.80;;;;;;5033576;28;20478;-79
2022/03/02 09:26:20;;;;;;;0.60;0.40;;;7.00;78.00;;;;;;5033659;28;20446;-79
2022/03/02 09:28:49;;;;;;;0.97;0.70;;;7.10;74.80;;;;;;5033145;28;21040;-79
2022/03/02 09:31:19;;;;;;;0.60;0.33;;;7.00;75.30;;;;;;5033566;28;20550;-79
2022/03/02 09:33:49;;;;;;;0.97;0.97;;;6.90;75.10;;;;;;5033288;28;20925;-79
2022/03/02 09:36:20;;;;;;;0.40;0.40;;;7.00;74.50;;;;;;5033517;28;20449;-80
2022/03/02 09:38:49;;;;;;;0.50;0.47;;;6.90;72.70;;;;;;5033506;28;20814;-80
2022/03/02 09:41:28;;;;;;;0.57;0.57;;;6.80;73.40;;;;;;5033390;28;20442;-80
2022/03/02 09:43:57;;;;;;;1.07;0.47;;;6.90;72.90;;;;;;5033467;28;20871;-79
2022/03/02 09:46:32;;;;;;;1.37;1.27;;;7.00;74.60;;;;;;5033344;28;20475;-79
2022/03/02 09:49:05;;;;;;;1.70;0.83;;;7.10;75.10;;;;;;5032892;28;20997;-79
2022/03/02 09:51:32;;;;;;;5.43;0.83;;;7.20;74.90;;;;;;5033096;28;20442;-79
2022/03/02 09:54:03;;;;;;;0.50;0.43;;;7.30;73.70;;;;;;5033079;28;20956;-79
2022/03/02 09:56:35;;;;;;;0.80;0.40;;;7.40;74.00;;;;;;5033052;28;20442;-79
2022/03/02 09:59:05;;;;;;;0.30;0.30;;;7.50;73.70;;;;;;5033212;28;20466;-79
2022/03/02 10:01:33;;;;;;;0.50;0.40;;;7.80;71.10;;;;;;5032972;28;20439;-79
2022/03/02 10:04:18;;;;;;;0.40;0.40;;;7.80;71.10;;;;;;5033267;28;20467;-79
2022/03/02 10:06:46;;;;;;;1.30;0.50;;;7.90;71.30;;;;;;5033230;28;20446;-79
2022/03/02 10:09:13;;;;;;;0.60;0.47;;;7.90;71.90;;;;;;5032925;28;20489;-79
2022/03/02 10:11:43;;;;;;;0.40;0.40;;;8.00;69.30;;;;;;5033156;28;20451;-79
2022/03/02 10:14:11;;;;;;;1.73;0.70;;;8.20;71.00;;;;;;5032855;28;20431;-79
2022/03/02 10:16:44;;;;;;;0.30;0.30;;;8.80;69.90;;;;;;5033101;28;20455;-82
2022/03/02 10:19:20;;;;;;;0.97;0.60;;;9.40;66.00;;;;;;5033074;28;20462;-83
2022/03/02 10:22:06;;;;;;;0.83;0.83;;;10.10;60.80;;;;;;5032796;28;20438;-81
2022/03/02 10:24:42;;;;;;;0.83;0.50;;;10.10;59.30;;;;;;5032942;28;20537;-80
2022/03/02 10:27:27;;;;;;;1.27;1.07;;;9.60;59.90;;;;;;5033077;28;20441;-82
2022/03/02 10:30:05;;;;;;;1.27;1.23;;;9.40;59.90;;;;;;5036489;28;20430;-83
2022/03/02 10:32:35;;;;;;;3.60;0.63;;;9.30;60.70;;;;;;5036805;28;20470;-82
2022/03/02 10:35:06;;;;;;;1.67;0.90;;;9.20;60.50;;;;;;5036802;28;20509;-82
2022/03/02 10:37:35;;;;;;;1.00;1.00;;;9.10;60.40;;;;;;5036706;28;20437;-83
2022/03/02 10:40:09;;;;;;;0.50;0.50;;;8.70;59.40;;;;;;5036434;28;20932;-82
2022/03/02 10:42:41;;;;;;;2.50;0.60;;;8.70;59.30;;;;;;5036711;28;20434;-80
2022/03/02 10:45:13;;;;;;;0.40;0.40;;;8.50;59.80;;;;;;5036626;28;20435;-82
2022/03/02 10:47:58;;;;;;;2.40;0.80;;;8.30;57.50;;;;;;5036405;28;20841;-82
2022/03/02 10:50:27;;;;;;;1.13;0.70;;;8.30;58.90;;;;;;5035908;28;20961;-82
2022/03/02 10:52:56;;;;;;;3.23;1.37;;;8.50;58.20;;;;;;5036197;28;20902;-81
2022/03/02 10:55:24;;;;;;;1.83;0.83;;;8.50;58.40;;;;;;5036387;28;20439;-82
2022/03/02 10:57:54;;;;;;;1.37;0.60;;;8.20;57.90;;;;;;5036291;28;20454;-80
2022/03/02 11:00:23;;;;;;;0.40;0.40;;;8.10;58.60;;;;;;5036041;28;20766;-83
2022/03/02 11:02:54;;;;;;;0.53;0.53;;;8.00;59.10;;;;;;5036229;28;20470;-82
2022/03/02 11:05:21;;;;;;;0.73;0.57;;;8.10;59.70;;;;;;5036256;28;20445;-82
2022/03/02 11:07:48;;;;;;;0.40;0.30;;;8.20;59.40;;;;;;5035949;28;20467;-82
2022/03/02 11:10:17;;;;;;;1.13;1.13;;;8.20;59.10;;;;;;5035663;28;20997;-81
2022/03/02 11:12:45;;;;;;;0.40;0.40;;;8.30;59.50;;;;;;5036103;28;20450;-82
2022/03/02 11:15:15;;;;;;;1.90;0.90;;;8.30;58.30;;;;;;5036064;28;20435;-82
2022/03/02 11:17:58;;;;;;;0.50;0.50;;;8.40;58.00;;;;;;5035925;28;20501;-81
2022/03/02 11:20:26;;;;;;;0.60;0.60;;;8.50;59.00;;;;;;5035987;28;20876;-79
2022/03/02 11:22:55;;;;;;;1.00;0.87;;;8.50;58.80;;;;;;5036191;28;20447;-81
2022/03/02 11:25:44;;;;;;;1.50;0.93;;;8.70;58.80;;;;;;5035875;28;20447;-79
2022/03/02 11:28:15;;;;;;;0.97;0.67;;;8.90;58.50;;;;;;5035696;28;20487;-81
2022/03/02 11:30:48;;;;;;;1.90;1.90;;;9.10;57.50;;;;;;5035810;28;20494;-80
2022/03/02 11:33:16;;;;;;;1.23;1.20;;;9.30;56.80;;;;;;5035781;28;20435;-79
2022/03/02 11:35:44;;;;;;;0.40;0.40;;;9.40;56.50;;;;;;5035352;28;20793;-79
2022/03/02 11:38:12;;;;;;;3.20;0.90;;;9.50;56.40;;;;;;5035522;28;20490;-80
2022/03/02 11:40:41;;;;;;;1.80;1.17;;;9.60;55.50;;;;;;5034591;28;20451;-80
2022/03/02 11:43:16;;;;;;;2.63;0.40;;;9.60;56.10;;;;;;5035189;28;20450;-79
2022/03/02 11:45:43;;;;;;;0.50;0.50;;;9.40;55.50;;;;;;5035419;28;20434;-85
2022/03/02 11:48:16;;;;;;;0.67;0.63;;;9.60;55.10;;;;;;5035493;28;20490;-85
2022/03/02 11:51:02;;;;;;;0.97;0.53;;;9.70;54.20;;;;;;5035500;28;20458;-85
2022/03/02 11:53:31;;;;;;;2.13;0.90;;;9.60;53.90;;;;;;5035467;28;20442;-88
2022/03/02 11:56:00;;;;;;;4.87;1.20;;;9.60;55.40;;;;;;5035281;28;20945;-88
2022/03/02 11:58:27;;;;;;;0.47;0.47;;;9.70;55.70;;;;;;5035060;28;20462;-85
2022/03/02 12:01:06;;;;;;;0.70;0.70;;;9.90;55.30;;;;;;5035270;28;20455;-88
2022/03/02 12:03:36;;;;;;;0.50;0.50;;;9.90;54.80;;;;;;5035296;28;20439;-86
2022/03/02 12:06:06;;;;;;;1.90;0.87;;;10.00;53.90;;;;;;5034983;28;20541;-83
2022/03/02 12:08:33;;;;;;;4.33;1.70;;;10.00;53.90;;;;;;5035012;28;20479;-86
2022/03/02 12:11:08;;;;;;;0.73;0.57;;;9.90;54.90;;;;;;5034794;28;20565;-84
2022/03/02 12:13:35;;;;;;;0.50;0.50;;;9.90;53.50;;;;;;5034913;28;20430;-86
2022/03/02 12:16:02;;;;;;;1.00;0.90;;;9.70;54.60;;;;;;5034922;28;20954;-85
2022/03/02 12:18:28;;;;;;;8.30;0.60;;;9.70;55.10;;;;;;5034961;28;20474;-87
2022/03/02 12:20:58;;;;;;;0.70;0.40;;;9.70;56.10;;;;;;5034730;28;20408;-86
2022/03/02 12:23:26;;;;;;;1.03;0.93;;;9.80;54.60;;;;;;5035200;28;20431;-85
2022/03/02 12:25:55;;;;;;;1.10;1.00;;;9.80;55.20;;;;;;5034618;28;20416;-86
2022/03/02 12:28:23;;;;;;;1.70;0.80;;;9.90;54.80;;;;;;5034316;28;20490;-87
2022/03/02 12:30:50;;;;;;;1.80;0.60;;;9.70;53.90;;;;;;5035362;28;20451;-87
2022/03/02 12:33:19;;;;;;;2.00;1.50;;;9.70;54.90;;;;;;5034733;28;20485;-87
2022/03/02 12:35:46;;;;;;;0.50;0.50;;;9.80;55.90;;;;;;5034799;28;20498;-87
2022/03/02 12:38:14;;;;;;;2.97;1.07;;;9.70;55.10;;;;;;5034598;28;20892;-87
2022/03/02 12:40:42;;;;;;;1.27;1.03;;;9.70;55.30;;;;;;5034557;28;20447;-86
2022/03/02 12:43:10;;;;;;;1.87;0.63;;;9.70;55.30;;;;;;5034620;28;20497;-86
2022/03/02 12:45:40;;;;;;;1.33;0.60;;;9.80;55.90;;;;;;5034260;28;20466;-87
2022/03/02 12:48:08;;;;;;;1.00;0.60;;;9.90;55.10;;;;;;5034221;28;20478;-86
2022/03/02 12:50:35;;;;;;;1.70;1.60;;;10.10;55.40;;;;;;5034085;28;20454;-86
2022/03/02 12:53:03;;;;;;;0.90;0.90;;;10.20;54.30;;;;;;5033883;28;20504;-83
2022/03/02 12:55:31;;;;;;;1.87;0.73;;;10.20;55.70;;;;;;5034344;28;20455;-85
2022/03/02 12:57:59;;;;;;;0.80;0.80;;;10.20;54.70;;;;;;5034511;28;20458;-81
2022/03/02 13:00:26;;;;;;;2.20;1.00;;;10.20;54.90;;;;;;5034234;28;20449;-85